Time;durP1;ratioP1;P1;durP2;ratioP2;P2;SDS_P1;SDS_P2;PMS_P1;PMS_P2;Temp;Humidity;BMP_temperature;BMP_pressure;BME280_temperature;BME280_humidity;BME280_pressure;Samples;Min_cycle;Max_cycle;Signal;HPM_P1;HPM_P2
2023/10/08 00:01:28;;;;;;;1.92;0.50;;;;;;;;;;5078770;28;20056;-70
2023/10/08 00:03:57;;;;;;;0.75;0.50;;;;;;;;;;5081474;28;20040;-70
2023/10/08 00:06:24;;;;;;;1.50;0.60;;;;;;;;;;5110018;28;20048;-70
2023/10/08 00:08:50;;;;;;;0.90;0.70;;;;;;;;;;5098991;28;20028;-70
2023/10/08 00:11:16;;;;;;;1.63;0.70;;;;;;;;;;5096367;28;20118;-70
2023/10/08 00:13:43;;;;;;;1.75;0.63;;;;;;;;;;5077561;28;20043;-70
2023/10/08 00:16:16;;;;;;;2.13;0.90;;;;;;;;;;5107312;28;20067;-70
2023/10/08 00:18:48;;;;;;;0.73;0.63;;;;;;;;;;5093047;28;20044;-70
2023/10/08 00:21:29;;;;;;;1.30;0.77;;;;;;;;;;5093781;28;20040;-70
2023/10/08 00:23:58;;;;;;;2.55;0.77;;;;;;;;;;5096564;28;20540;-70
2023/10/08 00:26:27;;;;;;;1.00;0.90;;;;;;;;;;5112413;28;20040;-70
2023/10/08 00:29:16;;;;;;;0.90;0.80;;;;;;;;;;5094205;28;20085;-70
2023/10/08 00:31:45;;;;;;;0.98;0.75;;;;;;;;;;5104268;28;20393;-70
2023/10/08 00:34:12;;;;;;;1.40;0.70;;;;;;;;;;5093285;28;20044;-70
2023/10/08 00:36:42;;;;;;;1.48;0.70;;;;;;;;;;5105949;28;20050;-70
2023/10/08 00:39:13;;;;;;;1.48;0.65;;;;;;;;;;5108896;28;20044;-70
2023/10/08 00:41:43;;;;;;;1.63;0.80;;;;;;;;;;5109080;28;20085;-70
2023/10/08 00:44:15;;;;;;;1.95;0.90;;;;;;;;;;5103937;28;20051;-70
2023/10/08 00:46:50;;;;;;;1.75;0.82;;;;;;;;;;5093711;28;20425;-72
2023/10/08 00:49:24;;;;;;;1.65;0.80;;;;;;;;;;5108847;28;20039;-71
2023/10/08 00:57:25;;;;;;;2.28;1.27;;;;;;;;;;5102506;28;20088;-70
2023/10/08 00:59:55;;;;;;;2.97;1.98;;;;;;;;;;5105225;28;20043;-70
2023/10/08 01:02:27;;;;;;;3.95;1.92;;;;;;;;;;5096494;28;20046;-70
2023/10/08 01:04:54;;;;;;;3.72;2.10;;;;;;;;;;5110335;28;20039;-71
2023/10/08 01:07:21;;;;;;;2.75;2.35;;;;;;;;;;5104790;28;20489;-71
2023/10/08 01:09:50;;;;;;;3.35;2.88;;;;;;;;;;5104332;28;20043;-71
2023/10/08 01:12:27;;;;;;;4.10;3.00;;;;;;;;;;5109052;28;20382;-70
2023/10/08 01:14:53;;;;;;;3.80;3.40;;;;;;;;;;5101030;28;20036;-70
2023/10/08 01:17:27;;;;;;;2.60;2.40;;;;;;;;;;5110693;28;20063;-70
2023/10/08 01:19:56;;;;;;;2.58;2.20;;;;;;;;;;5095360;28;20039;-70
2023/10/08 01:22:22;;;;;;;3.15;2.05;;;;;;;;;;5102516;28;20048;-70
2023/10/08 01:24:49;;;;;;;3.28;1.80;;;;;;;;;;5097137;28;20036;-70
2023/10/08 01:27:23;;;;;;;4.22;1.73;;;;;;;;;;5108220;28;20428;-70
2023/10/08 01:29:50;;;;;;;1.98;1.25;;;;;;;;;;5093579;28;20039;-70
2023/10/08 01:32:17;;;;;;;4.63;1.60;;;;;;;;;;5098186;28;20066;-70
2023/10/08 01:34:46;;;;;;;2.40;1.35;;;;;;;;;;5101686;28;20084;-70
2023/10/08 01:37:19;;;;;;;3.70;1.30;;;;;;;;;;5089036;28;20095;-70
2023/10/08 01:39:45;;;;;;;1.98;1.35;;;;;;;;;;5090134;28;20135;-70
2023/10/08 01:42:17;;;;;;;1.52;1.40;;;;;;;;;;5111663;28;20119;-71
2023/10/08 01:44:55;;;;;;;1.33;1.23;;;;;;;;;;5102349;28;20114;-71
2023/10/08 01:47:25;;;;;;;4.55;1.55;;;;;;;;;;5099368;28;20078;-70
2023/10/08 01:49:57;;;;;;;2.83;1.15;;;;;;;;;;5100715;28;20493;-71
2023/10/08 01:52:24;;;;;;;1.42;1.23;;;;;;;;;;5104771;28;20036;-70
2023/10/08 01:54:54;;;;;;;2.88;1.33;;;;;;;;;;5111839;28;20161;-70
2023/10/08 01:57:20;;;;;;;1.52;1.13;;;;;;;;;;5085248;28;20080;-70
2023/10/08 01:59:45;;;;;;;2.85;1.23;;;;;;;;;;5109618;28;20028;-70
2023/10/08 02:02:14;;;;;;;2.78;0.93;;;;;;;;;;5108444;28;20500;-70
2023/10/08 02:04:40;;;;;;;2.47;1.00;;;;;;;;;;5109759;28;20498;-70
2023/10/08 02:07:08;;;;;;;1.85;1.00;;;;;;;;;;5110480;28;20061;-70
2023/10/08 02:09:34;;;;;;;1.63;1.48;;;;;;;;;;5102070;28;20055;-70
2023/10/08 02:12:00;;;;;;;1.75;1.10;;;;;;;;;;5092379;28;20051;-70
2023/10/08 02:14:30;;;;;;;1.77;1.13;;;;;;;;;;5110155;28;20047;-70
2023/10/08 02:16:56;;;;;;;2.65;1.05;;;;;;;;;;5110319;28;20047;-70
2023/10/08 02:19:29;;;;;;;1.90;1.20;;;;;;;;;;5102459;28;20138;-70
2023/10/08 02:21:58;;;;;;;2.55;0.90;;;;;;;;;;5106702;28;20081;-70
2023/10/08 02:24:24;;;;;;;2.58;1.30;;;;;;;;;;5099933;28;20044;-71
2023/10/08 02:26:51;;;;;;;2.00;1.20;;;;;;;;;;5086663;28;20139;-71
2023/10/08 02:29:17;;;;;;;1.52;1.00;;;;;;;;;;5103923;28;20040;-71
2023/10/08 02:31:43;;;;;;;1.05;0.95;;;;;;;;;;5104656;28;20055;-70
2023/10/08 02:34:09;;;;;;;2.08;1.08;;;;;;;;;;5099032;28;20051;-70
2023/10/08 02:36:36;;;;;;;1.75;1.10;;;;;;;;;;5113358;28;20032;-70
2023/10/08 02:39:13;;;;;;;1.98;1.50;;;;;;;;;;5095195;28;20079;-70
2023/10/08 02:41:41;;;;;;;1.98;1.10;;;;;;;;;;5115203;28;20104;-70
2023/10/08 02:44:11;;;;;;;1.77;1.08;;;;;;;;;;5106613;28;20043;-70
2023/10/08 02:46:39;;;;;;;2.00;1.13;;;;;;;;;;5079797;28;20066;-70
2023/10/08 02:49:09;;;;;;;3.15;1.52;;;;;;;;;;5103901;28;20044;-71
2023/10/08 02:51:36;;;;;;;2.08;1.20;;;;;;;;;;5104932;28;20048;-71
2023/10/08 02:54:05;;;;;;;1.38;1.17;;;;;;;;;;5105516;28;20039;-70
2023/10/08 02:56:32;;;;;;;2.92;1.10;;;;;;;;;;5112038;28;20043;-70
2023/10/08 02:58:58;;;;;;;1.48;1.15;;;;;;;;;;5101082;28;20051;-70
2023/10/08 03:01:25;;;;;;;1.23;1.10;;;;;;;;;;5099313;28;20401;-71
2023/10/08 03:04:01;;;;;;;1.27;1.00;;;;;;;;;;5111296;28;20047;-71
2023/10/08 03:06:27;;;;;;;2.88;1.17;;;;;;;;;;5108888;28;20038;-71
2023/10/08 03:08:53;;;;;;;1.65;1.20;;;;;;;;;;5108272;28;20385;-71
2023/10/08 03:11:24;;;;;;;1.75;1.27;;;;;;;;;;5113615;28;20039;-71
2023/10/08 03:13:53;;;;;;;2.38;1.15;;;;;;;;;;5104148;28;20028;-71
2023/10/08 03:16:28;;;;;;;4.10;1.27;;;;;;;;;;5097354;28;20447;-71
2023/10/08 03:18:57;;;;;;;2.60;1.50;;;;;;;;;;5150999;22;20420;-72
2023/10/08 03:24:12;;;;;;;1.60;1.30;;;;;;;;;;5091142;28;20050;-72
2023/10/08 03:26:39;;;;;;;1.73;1.20;;;;;;;;;;5086767;28;20562;-72
2023/10/08 03:29:15;;;;;;;2.13;1.40;;;;;;;;;;5083600;28;20047;-73
2023/10/08 03:34:14;;;;;;;2.58;1.13;;;;;;;;;;5112826;27;20055;-73
2023/10/08 03:36:47;;;;;;;2.37;1.20;;;;;;;;;;5089894;28;20039;-73
2023/10/08 03:39:20;;;;;;;1.98;1.30;;;;;;;;;;5088170;28;20070;-73
2023/10/08 03:42:07;;;;;;;2.03;1.40;;;;;;;;;;5084722;28;20047;-73
2023/10/08 03:44:37;;;;;;;1.63;1.52;;;;;;;;;;5100277;28;20052;-73
2023/10/08 03:47:10;;;;;;;3.35;1.55;;;;;;;;;;5111320;28;20405;-73
2023/10/08 03:49:44;;;;;;;1.85;1.50;;;;;;;;;;5104606;28;20052;-73
2023/10/08 03:52:10;;;;;;;1.90;1.40;;;;;;;;;;5095694;28;20044;-73
2023/10/08 03:54:42;;;;;;;4.72;1.75;;;;;;;;;;5094621;28;20117;-73
2023/10/08 03:57:15;;;;;;;2.85;1.50;;;;;;;;;;5098289;28;20469;-73
2023/10/08 03:59:41;;;;;;;1.77;1.45;;;;;;;;;;5092863;28;20411;-73
2023/10/08 04:02:14;;;;;;;3.40;1.55;;;;;;;;;;5088077;28;20043;-73
2023/10/08 04:04:56;;;;;;;3.08;1.70;;;;;;;;;;5104004;28;20443;-73
2023/10/08 04:12:43;;;;;;;2.60;1.80;;;;;;;;;;5106908;28;20094;-73
2023/10/08 04:15:12;;;;;;;2.97;1.50;;;;;;;;;;5065464;28;20394;-73
2023/10/08 04:17:44;;;;;;;2.17;1.55;;;;;;;;;;5094649;28;20055;-73
2023/10/08 04:23:20;;;;;;;4.00;1.80;;;;;;;;;;5066179;28;20039;-73
2023/10/08 04:25:53;;;;;;;2.40;1.77;;;;;;;;;;5093134;28;20044;-73
2023/10/08 04:28:20;;;;;;;2.25;1.70;;;;;;;;;;5078936;28;20094;-72
2023/10/08 04:30:47;;;;;;;3.65;1.48;;;;;;;;;;5103073;28;20404;-72
2023/10/08 04:33:14;;;;;;;2.50;1.45;;;;;;;;;;5106241;28;20043;-72
2023/10/08 04:35:56;;;;;;;4.93;1.50;;;;;;;;;;5097819;28;20051;-72
2023/10/08 04:38:26;;;;;;;2.22;1.20;;;;;;;;;;5100313;27;20405;-73
2023/10/08 04:40:52;;;;;;;2.28;1.30;;;;;;;;;;5089664;28;20101;-73
2023/10/08 04:43:27;;;;;;;4.75;1.30;;;;;;;;;;5112106;28;20041;-73
2023/10/08 04:45:53;;;;;;;3.47;1.42;;;;;;;;;;5106843;27;20035;-72
2023/10/08 04:48:23;;;;;;;4.78;1.35;;;;;;;;;;5105431;27;20051;-73
2023/10/08 04:50:58;;;;;;;2.35;1.38;;;;;;;;;;5101667;28;20398;-73
2023/10/08 04:53:31;;;;;;;2.80;1.30;;;;;;;;;;5099212;27;20052;-73
2023/10/08 04:55:59;;;;;;;3.08;1.20;;;;;;;;;;5101717;28;20040;-73
2023/10/08 04:58:33;;;;;;;2.00;1.15;;;;;;;;;;5097984;28;20043;-73
2023/10/08 05:01:16;;;;;;;;;;;;;;;;;;5099530;28;20110;-73
2023/10/08 05:04:06;;;;;;;2.42;1.00;;;;;;;;;;5096152;28;19928;-73
2023/10/08 05:25:23;;;;;;;4.22;1.10;;;;;;;;;;5108254;28;20400;-73
2023/10/08 05:30:53;;;;;;;3.63;0.88;;;;;;;;;;5101654;28;20494;-73
2023/10/08 05:43:48;;;;;;;6.05;1.00;;;;;;;;;;5100851;28;20040;-73
2023/10/08 06:03:00;;;;;;;3.35;1.00;;;;;;;;;;5102276;28;20040;-73
2023/10/08 06:15:48;;;;;;;1.83;0.73;;;;;;;;;;5104801;28;20035;-72
2023/10/08 06:18:25;;;;;;;1.73;0.60;;;;;;;;;;5102538;28;20386;-72
2023/10/08 06:20:54;;;;;;;3.15;0.70;;;;;;;;;;5113862;28;20080;-72
2023/10/08 06:23:20;;;;;;;2.03;1.05;;;;;;;;;;5101603;28;20047;-72
2023/10/08 06:26:13;;;;;;;4.40;1.10;;;;;;;;;;5087623;28;20489;-72
2023/10/08 06:28:41;;;;;;;4.25;0.90;;;;;;;;;;5105864;28;20044;-72
2023/10/08 06:31:11;;;;;;;6.07;1.63;;;;;;;;;;5113120;28;20054;-72
2023/10/08 06:33:38;;;;;;;2.85;0.80;;;;;;;;;;5102887;27;20055;-72
2023/10/08 06:36:15;;;;;;;5.25;1.02;;;;;;;;;;5105977;28;20040;-72
2023/10/08 06:38:42;;;;;;;3.78;1.13;;;;;;;;;;5109064;27;20469;-73
2023/10/08 06:43:39;;;;;;;3.10;1.00;;;;;;;;;;5111030;28;20127;-73
2023/10/08 06:46:07;;;;;;;4.07;0.85;;;;;;;;;;5111550;28;21361;-73
2023/10/08 06:48:34;;;;;;;6.97;1.10;;;;;;;;;;5084455;28;20044;-73
2023/10/08 06:51:13;;;;;;;3.35;0.90;;;;;;;;;;5097473;28;20296;-73
2023/10/08 06:53:39;;;;;;;4.60;0.70;;;;;;;;;;5101031;28;20035;-73
2023/10/08 06:56:05;;;;;;;6.43;1.38;;;;;;;;;;5091660;28;20053;-73
2023/10/08 06:58:32;;;;;;;7.55;1.10;;;;;;;;;;5084003;28;20168;-74
2023/10/08 07:00:58;;;;;;;2.55;0.65;;;;;;;;;;5106992;27;20039;-73
2023/10/08 07:03:25;;;;;;;3.65;1.00;;;;;;;;;;5106393;28;20473;-74
2023/10/08 07:05:57;;;;;;;4.30;1.02;;;;;;;;;;5088075;28;20055;-73
2023/10/08 07:08:23;;;;;;;7.82;1.13;;;;;;;;;;5097943;27;20536;-74
2023/10/08 07:10:53;;;;;;;6.13;1.10;;;;;;;;;;5081687;28;20067;-74
2023/10/08 07:13:24;;;;;;;5.68;0.90;;;;;;;;;;5085151;27;20039;-74
2023/10/08 07:15:50;;;;;;;6.32;0.82;;;;;;;;;;5101842;28;20040;-74
2023/10/08 07:18:26;;;;;;;4.30;1.10;;;;;;;;;;5103037;27;20039;-74
2023/10/08 07:21:00;;;;;;;5.15;0.90;;;;;;;;;;5100224;28;20039;-74
2023/10/08 07:23:29;;;;;;;7.43;1.05;;;;;;;;;;5098344;28;20048;-73
2023/10/08 07:26:23;;;;;;;3.33;0.80;;;;;;;;;;5113790;27;20075;-72
2023/10/08 07:28:46;;;;;;;4.20;1.13;;;;;;;;;;5084239;28;20040;-73
2023/10/08 07:31:22;;;;;;;7.63;1.60;;;;;;;;;;5100993;28;20044;-73
2023/10/08 07:34:15;;;;;;;2.75;0.85;;;;;;;;;;5109824;28;20051;-74
2023/10/08 07:36:41;;;;;;;2.88;1.20;;;;;;;;;;5102435;27;20414;-74
2023/10/08 07:39:15;;;;;;;4.70;1.10;;;;;;;;;;5108683;28;20131;-74
2023/10/08 07:41:41;;;;;;;4.40;1.02;;;;;;;;;;5101660;27;20047;-74
2023/10/08 07:44:07;;;;;;;5.00;1.10;;;;;;;;;;5101220;28;20032;-74
2023/10/08 07:46:33;;;;;;;3.90;0.77;;;;;;;;;;5103645;28;20054;-74
2023/10/08 07:48:59;;;;;;;3.70;1.40;;;;;;;;;;5089342;28;20485;-74
2023/10/08 07:51:25;;;;;;;5.38;1.38;;;;;;;;;;5107274;28;20036;-74
2023/10/08 07:53:55;;;;;;;5.18;1.13;;;;;;;;;;5102727;28;20044;-74
2023/10/08 07:56:21;;;;;;;6.28;1.00;;;;;;;;;;5084180;28;20083;-74
2023/10/08 07:58:48;;;;;;;7.70;1.85;;;;;;;;;;5102808;28;20188;-74
2023/10/08 08:01:14;;;;;;;5.30;1.45;;;;;;;;;;5107486;28;20039;-74
2023/10/08 08:03:41;;;;;;;4.60;1.15;;;;;;;;;;5093582;28;20039;-74
2023/10/08 08:06:07;;;;;;;7.75;1.10;;;;;;;;;;5099318;28;20110;-74
2023/10/08 08:08:35;;;;;;;2.92;1.00;;;;;;;;;;5105782;28;20585;-74
2023/10/08 08:11:11;;;;;;;4.88;1.00;;;;;;;;;;5109670;28;20158;-74
2023/10/08 08:13:38;;;;;;;6.25;1.15;;;;;;;;;;5107594;28;20035;-74
2023/10/08 08:16:16;;;;;;;4.78;0.98;;;;;;;;;;5075359;28;20396;-74
2023/10/08 08:18:46;;;;;;;3.55;0.90;;;;;;;;;;5115293;27;20036;-74
2023/10/08 08:21:16;;;;;;;5.28;0.90;;;;;;;;;;5089974;28;20533;-75
2023/10/08 08:23:48;;;;;;;4.97;1.17;;;;;;;;;;5092718;28;20035;-75
2023/10/08 08:26:29;;;;;;;7.68;1.42;;;;;;;;;;5093208;28;20086;-75
2023/10/08 08:28:56;;;;;;;4.00;1.10;;;;;;;;;;5097375;28;20144;-75
2023/10/08 08:31:23;;;;;;;5.15;1.20;;;;;;;;;;5110577;28;20040;-75
2023/10/08 08:33:59;;;;;;;4.28;1.08;;;;;;;;;;5083383;28;20043;-75
2023/10/08 08:36:27;;;;;;;6.25;1.30;;;;;;;;;;5085840;28;20187;-75
2023/10/08 08:38:53;;;;;;;7.20;1.35;;;;;;;;;;5103249;27;20157;-75
2023/10/08 08:41:20;;;;;;;3.65;1.13;;;;;;;;;;5080583;28;20615;-75
2023/10/08 08:43:58;;;;;;;4.13;0.90;;;;;;;;;;5097210;28;20512;-75
2023/10/08 08:46:31;;;;;;;4.88;1.33;;;;;;;;;;5103237;27;20070;-75
2023/10/08 08:49:00;;;;;;;7.50;1.52;;;;;;;;;;5101036;28;20608;-75
2023/10/08 08:51:27;;;;;;;3.13;0.93;;;;;;;;;;5081956;28;20067;-75
2023/10/08 08:53:52;;;;;;;7.07;1.17;;;;;;;;;;5080350;28;20046;-75
2023/10/08 08:56:19;;;;;;;5.00;1.10;;;;;;;;;;5100481;28;20035;-74
2023/10/08 08:58:45;;;;;;;4.72;0.90;;;;;;;;;;5107134;27;20039;-74
2023/10/08 09:01:13;;;;;;;6.07;1.55;;;;;;;;;;5107572;28;20118;-74
2023/10/08 09:03:39;;;;;;;4.22;1.23;;;;;;;;;;5095321;28;20100;-74
2023/10/08 09:06:05;;;;;;;7.57;1.67;;;;;;;;;;5108515;28;20040;-74
2023/10/08 09:08:35;;;;;;;5.40;1.30;;;;;;;;;;5103875;28;20126;-74
2023/10/08 09:11:04;;;;;;;6.38;1.00;;;;;;;;;;5100854;28;20039;-74
2023/10/08 09:13:31;;;;;;;9.60;1.23;;;;;;;;;;5109632;28;20038;-74
2023/10/08 09:15:58;;;;;;;6.43;1.05;;;;;;;;;;5085048;28;20046;-74
2023/10/08 09:18:27;;;;;;;6.43;1.30;;;;;;;;;;5099909;22;20047;-65
2023/10/08 09:20:55;;;;;;;6.70;1.38;;;;;;;;;;5055344;28;20120;-66
2023/10/08 09:23:22;;;;;;;3.95;1.10;;;;;;;;;;5057141;28;20040;-65
2023/10/08 09:25:59;;;;;;;6.15;1.00;;;;;;;;;;5080641;22;20050;-65
2023/10/08 09:28:25;;;;;;;5.60;1.58;;;;;;;;;;5090507;28;20060;-65
2023/10/08 09:30:53;;;;;;;5.90;1.45;;;;;;;;;;5089818;28;20124;-66
2023/10/08 09:33:19;;;;;;;5.85;1.38;;;;;;;;;;5073066;28;20040;-65
2023/10/08 09:35:46;;;;;;;10.07;1.20;;;;;;;;;;5090208;28;20495;-65
2023/10/08 09:38:13;;;;;;;6.65;1.05;;;;;;;;;;5090846;28;20033;-67
2023/10/08 09:40:44;;;;;;;6.18;1.50;;;;;;;;;;5067438;28;20036;-66
2023/10/08 09:43:13;;;;;;;10.35;1.23;;;;;;;;;;5081781;28;20032;-65
2023/10/08 09:45:42;;;;;;;9.32;1.15;;;;;;;;;;5072152;28;20036;-68
2023/10/08 09:48:12;;;;;;;4.45;1.35;;;;;;;;;;5085313;28;20036;-65
2023/10/08 09:50:41;;;;;;;4.32;1.00;;;;;;;;;;5092112;28;20051;-66
2023/10/08 09:53:07;;;;;;;6.10;1.15;;;;;;;;;;5089156;28;20111;-68
2023/10/08 09:55:34;;;;;;;5.65;1.00;;;;;;;;;;5089414;28;20514;-67
2023/10/08 09:58:00;;;;;;;4.45;0.88;;;;;;;;;;5090197;28;20052;-66
2023/10/08 10:00:30;;;;;;;6.82;1.30;;;;;;;;;;5089220;28;20483;-67
2023/10/08 10:02:59;;;;;;;3.88;1.20;;;;;;;;;;5088829;28;20043;-67
2023/10/08 10:05:29;;;;;;;6.47;1.20;;;;;;;;;;5089766;28;20100;-67
2023/10/08 10:07:58;;;;;;;5.60;1.13;;;;;;;;;;5086798;28;20032;-67
2023/10/08 10:10:30;;;;;;;5.38;1.33;;;;;;;;;;5072528;28;20048;-66
2023/10/08 10:13:00;;;;;;;6.75;1.20;;;;;;;;;;5090793;28;20096;-67
2023/10/08 10:15:30;;;;;;;8.52;1.55;;;;;;;;;;5083599;28;20162;-68
2023/10/08 10:17:59;;;;;;;7.90;1.13;;;;;;;;;;5087559;28;20083;-67
2023/10/08 10:20:25;;;;;;;9.30;1.95;;;;;;;;;;5090115;28;20399;-66
2023/10/08 10:22:51;;;;;;;6.75;1.45;;;;;;;;;;5090988;28;20059;-66
2023/10/08 10:25:17;;;;;;;7.05;1.10;;;;;;;;;;5085103;28;20031;-67
2023/10/08 10:28:04;;;;;;;3.85;1.33;;;;;;;;;;5085964;28;20085;-67
2023/10/08 10:30:30;;;;;;;4.72;1.38;;;;;;;;;;5074735;28;20137;-67
2023/10/08 10:32:59;;;;;;;6.95;1.38;;;;;;;;;;5090249;28;20055;-66
2023/10/08 10:35:27;;;;;;;5.63;1.05;;;;;;;;;;5089386;28;20486;-66
2023/10/08 10:37:55;;;;;;;9.90;1.40;;;;;;;;;;5090344;28;20040;-67
2023/10/08 10:40:39;;;;;;;6.63;1.17;;;;;;;;;;5091711;28;20040;-67
2023/10/08 10:43:15;;;;;;;8.13;1.33;;;;;;;;;;5093416;28;20028;-66
2023/10/08 10:45:47;;;;;;;4.95;1.52;;;;;;;;;;5058343;28;20119;-67
2023/10/08 10:53:33;;;;;;;5.18;1.10;;;;;;;;;;5094055;28;20062;-68
2023/10/08 10:56:03;;;;;;;5.70;1.27;;;;;;;;;;5094405;28;20043;-67
2023/10/08 10:58:38;;;;;;;5.55;1.17;;;;;;;;;;5091828;28;20108;-66
2023/10/08 11:01:21;;;;;;;7.65;1.30;;;;;;;;;;5092727;28;20127;-67
2023/10/08 11:03:51;;;;;;;7.90;1.15;;;;;;;;;;5092110;28;20066;-66
2023/10/08 11:06:22;;;;;;;8.45;1.50;;;;;;;;;;5096213;28;20104;-67
2023/10/08 11:08:49;;;;;;;7.72;1.25;;;;;;;;;;5090867;28;20047;-67
2023/10/08 11:11:17;;;;;;;6.78;1.48;;;;;;;;;;5093194;28;20043;-67
2023/10/08 11:13:46;;;;;;;8.38;1.83;;;;;;;;;;5091776;28;20044;-67
2023/10/08 11:16:15;;;;;;;4.72;1.23;;;;;;;;;;5071531;28;20101;-67
2023/10/08 11:18:43;;;;;;;6.70;1.38;;;;;;;;;;5092999;28;20035;-67
2023/10/08 11:21:33;;;;;;;7.88;1.73;;;;;;;;;;5093132;28;20032;-67
2023/10/08 11:23:58;;;;;;;6.07;1.65;;;;;;;;;;5090628;28;20763;-68
2023/10/08 11:26:35;;;;;;;4.75;1.30;;;;;;;;;;5095511;28;20036;-66
2023/10/08 11:29:03;;;;;;;8.65;1.63;;;;;;;;;;5092800;28;20116;-66
2023/10/08 11:31:29;;;;;;;6.60;1.48;;;;;;;;;;5092794;28;20032;-66
2023/10/08 11:34:08;;;;;;;5.82;1.55;;;;;;;;;;5096148;28;20112;-66
2023/10/08 11:36:42;;;;;;;8.13;1.10;;;;;;;;;;5091959;28;20063;-66
2023/10/08 11:39:21;;;;;;;3.40;1.10;;;;;;;;;;5092366;28;20414;-67
2023/10/08 11:41:55;;;;;;;4.13;1.20;;;;;;;;;;5087527;28;20032;-67
2023/10/08 11:44:23;;;;;;;7.18;1.63;;;;;;;;;;5077705;28;20044;-66
2023/10/08 11:46:52;;;;;;;4.75;1.42;;;;;;;;;;5073501;28;20447;-66
2023/10/08 11:49:18;;;;;;;7.35;1.40;;;;;;;;;;5091890;28;20036;-66
2023/10/08 11:51:46;;;;;;;6.88;1.10;;;;;;;;;;5091825;28;20097;-67
2023/10/08 11:54:12;;;;;;;6.45;1.63;;;;;;;;;;5094297;28;20032;-66
2023/10/08 11:56:38;;;;;;;4.85;1.08;;;;;;;;;;5068595;28;20040;-65
2023/10/08 11:59:12;;;;;;;7.47;1.25;;;;;;;;;;5092279;28;20519;-66
2023/10/08 12:01:42;;;;;;;8.05;1.20;;;;;;;;;;5090567;28;20043;-66
2023/10/08 12:04:12;;;;;;;5.28;1.27;;;;;;;;;;5094577;28;20047;-63
2023/10/08 12:06:39;;;;;;;6.05;1.13;;;;;;;;;;5091682;28;20052;-63
2023/10/08 12:09:11;;;;;;;10.35;1.20;;;;;;;;;;5092494;28;20051;-63
2023/10/08 12:11:39;;;;;;;4.95;1.38;;;;;;;;;;5084159;28;20047;-63
2023/10/08 12:14:05;;;;;;;6.35;1.20;;;;;;;;;;5091395;28;20119;-63
2023/10/08 12:16:35;;;;;;;5.65;1.13;;;;;;;;;;5091980;28;20036;-63
2023/10/08 12:19:02;;;;;;;6.07;1.20;;;;;;;;;;5088778;28;20043;-63
2023/10/08 12:21:31;;;;;;;9.60;1.70;;;;;;;;;;5091329;28;20039;-63
2023/10/08 12:24:05;;;;;;;6.68;1.23;;;;;;;;;;5085024;28;20067;-62
2023/10/08 12:26:31;;;;;;;5.85;1.35;;;;;;;;;;5091744;28;20071;-63
2023/10/08 12:28:57;;;;;;;4.97;1.25;;;;;;;;;;5091957;28;20398;-63
2023/10/08 12:31:24;;;;;;;4.47;1.13;;;;;;;;;;5090461;28;20135;-63
2023/10/08 12:33:53;;;;;;;4.43;1.63;;;;;;;;;;5089904;28;20039;-63
2023/10/08 12:36:23;;;;;;;3.70;1.00;;;;;;;;;;5090731;28;20062;-63
2023/10/08 12:38:57;;;;;;;7.28;1.27;;;;;;;;;;5091550;28;20514;-63
2023/10/08 12:41:24;;;;;;;9.10;1.65;;;;;;;;;;5091911;28;20050;-62
2023/10/08 12:43:53;;;;;;;4.95;1.00;;;;;;;;;;5089791;28;20040;-63
2023/10/08 12:46:25;;;;;;;6.57;1.67;;;;;;;;;;5086846;28;20047;-62
2023/10/08 12:48:54;;;;;;;5.50;1.20;;;;;;;;;;5088443;28;20044;-63
2023/10/08 12:51:24;;;;;;;8.13;1.77;;;;;;;;;;5091764;28;20043;-64
2023/10/08 12:54:21;;;;;;;5.50;1.30;;;;;;;;;;5089735;28;20028;-64
2023/10/08 12:56:54;;;;;;;5.32;1.05;;;;;;;;;;5088227;28;20093;-63
2023/10/08 12:59:20;;;;;;;4.25;0.90;;;;;;;;;;5091766;28;20049;-63
2023/10/08 13:01:51;;;;;;;7.18;1.30;;;;;;;;;;5090837;28;20511;-63
2023/10/08 13:04:24;;;;;;;5.72;1.10;;;;;;;;;;5088494;28;20553;-63
2023/10/08 13:06:51;;;;;;;6.13;1.30;;;;;;;;;;5088115;28;20553;-63
2023/10/08 13:09:17;;;;;;;5.78;1.50;;;;;;;;;;5090564;28;20040;-64
2023/10/08 13:11:43;;;;;;;4.05;1.13;;;;;;;;;;5083816;28;20440;-64
2023/10/08 13:14:11;;;;;;;6.95;1.30;;;;;;;;;;5093054;28;20059;-64
2023/10/08 13:16:37;;;;;;;4.25;1.17;;;;;;;;;;5091384;28;20044;-63
2023/10/08 13:19:04;;;;;;;8.15;1.20;;;;;;;;;;5085263;28;20111;-64
2023/10/08 13:21:31;;;;;;;4.68;1.02;;;;;;;;;;5089759;28;20097;-64
2023/10/08 13:23:59;;;;;;;4.55;1.10;;;;;;;;;;5093476;28;20646;-63
2023/10/08 13:26:30;;;;;;;4.13;1.45;;;;;;;;;;5087341;28;20059;-64
2023/10/08 13:28:56;;;;;;;;;;;;;;;;;;5066806;28;20096;-63
2023/10/08 13:31:23;;;;;;;5.82;1.00;;;;;;;;;;5090263;28;19916;-64
2023/10/08 13:33:49;;;;;;;6.30;1.42;;;;;;;;;;5090762;28;20047;-64
2023/10/08 13:36:15;;;;;;;6.10;1.23;;;;;;;;;;5089644;28;20032;-64
2023/10/08 13:38:41;;;;;;;4.72;1.20;;;;;;;;;;5087364;28;20040;-63
2023/10/08 13:41:20;;;;;;;6.75;1.23;;;;;;;;;;5087036;28;20039;-64
2023/10/08 13:43:47;;;;;;;8.88;1.30;;;;;;;;;;5090342;28;20557;-64
2023/10/08 13:46:14;;;;;;;7.40;0.80;;;;;;;;;;5090095;28;20040;-64
2023/10/08 13:48:41;;;;;;;5.85;1.00;;;;;;;;;;5071772;28;20048;-63
2023/10/08 13:51:14;;;;;;;4.15;1.10;;;;;;;;;;5089579;28;20098;-64
2023/10/08 13:53:52;;;;;;;3.53;0.85;;;;;;;;;;5089406;28;20032;-64
2023/10/08 13:56:19;;;;;;;5.68;1.73;;;;;;;;;;5069542;28;20093;-64
2023/10/08 13:58:49;;;;;;;6.10;1.50;;;;;;;;;;5085712;28;20048;-64
2023/10/08 14:01:19;;;;;;;6.97;1.92;;;;;;;;;;5086940;28;20062;-64
2023/10/08 14:03:48;;;;;;;4.07;1.10;;;;;;;;;;5084348;28;20051;-64
2023/10/08 14:06:16;;;;;;;6.32;1.08;;;;;;;;;;5086529;28;20074;-63
2023/10/08 14:08:44;;;;;;;5.20;1.20;;;;;;;;;;5097498;28;20050;-64
2023/10/08 14:11:12;;;;;;;6.00;1.35;;;;;;;;;;5071800;28;20076;-63
2023/10/08 14:13:42;;;;;;;8.85;1.75;;;;;;;;;;5088331;28;20126;-64
2023/10/08 14:16:10;;;;;;;5.22;1.10;;;;;;;;;;5090657;28;20044;-64
2023/10/08 14:18:43;;;;;;;4.32;1.00;;;;;;;;;;5094038;28;20040;-63
2023/10/08 14:21:12;;;;;;;5.15;1.60;;;;;;;;;;5093213;28;20043;-64
2023/10/08 14:23:39;;;;;;;6.03;1.20;;;;;;;;;;5092952;28;20404;-64
2023/10/08 14:26:09;;;;;;;6.45;1.70;;;;;;;;;;5088601;28;20044;-64
2023/10/08 14:28:42;;;;;;;9.17;1.33;;;;;;;;;;5092549;28;20043;-64
2023/10/08 14:31:08;;;;;;;6.10;1.20;;;;;;;;;;5093952;28;20040;-64
2023/10/08 14:33:55;;;;;;;6.05;1.58;;;;;;;;;;5094293;28;20039;-63
2023/10/08 14:44:38;;;;;;;3.25;1.50;;;;;;;;;;5092983;28;20047;-65
2023/10/08 14:47:07;;;;;;;4.93;1.08;;;;;;;;;;5093921;28;20044;-64
2023/10/08 14:49:33;;;;;;;5.32;1.30;;;;;;;;;;5087110;28;20118;-64
2023/10/08 14:52:00;;;;;;;4.47;1.15;;;;;;;;;;5093853;28;20416;-64
2023/10/08 14:54:26;;;;;;;3.63;0.90;;;;;;;;;;5094446;28;20553;-64
2023/10/08 14:56:52;;;;;;;6.07;1.20;;;;;;;;;;5097218;28;20036;-64
2023/10/08 14:59:20;;;;;;;5.78;1.20;;;;;;;;;;5073750;28;20512;-65
2023/10/08 15:01:47;;;;;;;4.53;1.00;;;;;;;;;;5092298;28;20044;-64
2023/10/08 15:04:13;;;;;;;6.25;1.42;;;;;;;;;;5092683;28;20035;-65
2023/10/08 15:06:40;;;;;;;7.22;2.83;;;;;;;;;;5089979;28;20040;-64
2023/10/08 15:09:08;;;;;;;7.38;2.35;;;;;;;;;;5090273;28;20477;-64
2023/10/08 15:11:35;;;;;;;4.88;1.33;;;;;;;;;;5092278;28;20586;-64
2023/10/08 15:14:09;;;;;;;6.82;1.77;;;;;;;;;;5087357;28;20081;-64
2023/10/08 15:16:35;;;;;;;8.43;1.88;;;;;;;;;;5093667;28;20071;-64
2023/10/08 15:19:03;;;;;;;5.85;2.10;;;;;;;;;;5142353;22;20044;-64
2023/10/08 15:21:33;;;;;;;9.82;2.72;;;;;;;;;;5093936;28;20036;-64
2023/10/08 15:24:05;;;;;;;6.88;2.47;;;;;;;;;;5088096;28;20306;-64
2023/10/08 15:26:31;;;;;;;4.13;1.80;;;;;;;;;;5079570;28;20036;-64
2023/10/08 15:28:57;;;;;;;7.18;2.33;;;;;;;;;;5083752;28;20128;-64
2023/10/08 15:31:24;;;;;;;50.08;13.52;;;;;;;;;;5079114;28;20147;-65
2023/10/08 15:33:50;;;;;;;8.65;2.65;;;;;;;;;;5079064;28;20036;-65
2023/10/08 15:36:16;;;;;;;7.55;1.90;;;;;;;;;;5077328;28;20165;-64
2023/10/08 15:38:43;;;;;;;6.40;1.80;;;;;;;;;;5087672;28;20043;-65
2023/10/08 15:41:09;;;;;;;6.30;1.85;;;;;;;;;;5082846;28;20047;-64
2023/10/08 15:43:35;;;;;;;11.27;2.00;;;;;;;;;;5075462;28;20124;-65
2023/10/08 15:46:01;;;;;;;8.18;1.95;;;;;;;;;;5083126;28;20036;-65
2023/10/08 15:48:28;;;;;;;6.20;1.83;;;;;;;;;;5080016;28;20672;-65
2023/10/08 15:50:54;;;;;;;6.70;1.77;;;;;;;;;;5077498;28;20093;-66
2023/10/08 15:53:20;;;;;;;6.30;1.27;;;;;;;;;;5084583;28;20443;-65
2023/10/08 15:55:47;;;;;;;5.95;1.52;;;;;;;;;;5085167;28;20097;-65
2023/10/08 15:58:13;;;;;;;4.10;1.60;;;;;;;;;;5080522;28;20039;-65
2023/10/08 16:00:39;;;;;;;7.22;2.50;;;;;;;;;;5086118;28;20047;-65
2023/10/08 16:03:05;;;;;;;5.80;2.35;;;;;;;;;;5080968;28;20036;-65
2023/10/08 16:05:32;;;;;;;5.38;2.33;;;;;;;;;;5092441;28;20038;-65
2023/10/08 16:07:58;;;;;;;7.05;1.80;;;;;;;;;;5089015;28;20646;-65
2023/10/08 16:10:28;;;;;;;3.63;1.38;;;;;;;;;;5082306;28;20044;-64
2023/10/08 16:12:56;;;;;;;6.65;1.73;;;;;;;;;;5084083;28;20055;-65
2023/10/08 16:15:22;;;;;;;6.47;1.50;;;;;;;;;;5085502;28;20085;-65
2023/10/08 16:17:51;;;;;;;4.45;1.10;;;;;;;;;;5085642;28;20123;-65
2023/10/08 16:20:17;;;;;;;3.97;1.35;;;;;;;;;;5078255;28;20040;-64
2023/10/08 16:22:47;;;;;;;4.05;1.25;;;;;;;;;;5081506;28;20044;-64
2023/10/08 16:25:19;;;;;;;6.43;1.50;;;;;;;;;;5084929;28;20564;-64
2023/10/08 16:27:49;;;;;;;5.32;1.25;;;;;;;;;;5082840;28;20044;-65
2023/10/08 16:30:22;;;;;;;4.73;1.40;;;;;;;;;;5082518;28;20044;-64
2023/10/08 16:32:52;;;;;;;3.60;1.20;;;;;;;;;;5080606;28;21778;-64